Christos Xxxiii — SVA6631 — position and weather

sailwx.info

Track history (hours):
 
Tides and Currents Weather Stations Pressure Air Temp Water Temp Dewpoint Dewpoint Depression Visibility Wind Speed Wind Dir Waves Ship Positions

Christos Xxxiii

Last reported at 2017-Nov-25 00:00 UTC. Time now 2017-Nov-25 00:17 UTC.
Position N 37°57' E 023°36'.

Length 33 m; draft 5 m.

Type: Tug. MMSI: 241395000.

Date/timePositionNaut miles runAvg speedWind from/ knotsBaromVisibWave heightAir tempDewpointWater temp
2017-Nov-25 00:00N 37°57' E 023°36'0 0.0
2017-Nov-24 23:30N 37°57' E 023°36'0 0.4
2017-Nov-24 23:00N 37°57' E 023°36'1 2.2
2017-Nov-24 22:30N 37°56' E 023°36'1 1.9
2017-Nov-24 22:01N 37°57' E 023°36'0 0.8
2017-Nov-24 21:30N 37°57' E 023°36'1 2.0
2017-Nov-24 21:00N 37°56' E 023°36'0 0.4
2017-Nov-24 20:31N 37°56' E 023°36'1 2.3
2017-Nov-24 20:00N 37°57' E 023°36'0 0.0
2017-Nov-24 19:30N 37°57' E 023°36'0 0.0
2017-Nov-24 19:00N 37°57' E 023°36'0 0.0
2017-Nov-24 18:30N 37°57' E 023°36'0 0.0
2017-Nov-24 18:00N 37°57' E 023°36'0 0.0
2017-Nov-24 17:30N 37°57' E 023°36'1 1.5
2017-Nov-24 17:00N 37°57' E 023°37'0 0.0
2017-Nov-24 16:30N 37°57' E 023°37'0 0.0
2017-Nov-24 16:00N 37°57' E 023°37'0 0.0
2017-Nov-24 15:30N 37°57' E 023°37'0 0.0
2017-Nov-24 15:00N 37°57' E 023°37'0 0.0
2017-Nov-24 14:30N 37°57' E 023°37'0 0.0
2017-Nov-24 14:00N 37°57' E 023°37'1 2.4
2017-Nov-24 13:30N 37°57' E 023°35'1 2.8
2017-Nov-24 13:01N 37°56' E 023°34'0 0.3
2017-Nov-24 12:31N 37°56' E 023°34'1 1.8
2017-Nov-24 12:00N 37°57' E 023°35'1 2.1
2017-Nov-24 11:30N 37°57' E 023°34'0 0.9
2017-Nov-24 11:00N 37°57' E 023°33'0 0.2
2017-Nov-24 10:30N 37°57' E 023°33'0 0.0
2017-Nov-24 10:00N 37°57' E 023°33'0 0.1
2017-Nov-24 09:30N 37°57' E 023°33'0 0.0
2017-Nov-24 09:00N 37°57' E 023°33'0 0.0
2017-Nov-24 08:30N 37°57' E 023°33'0 0.0
2017-Nov-24 08:00N 37°57' E 023°33'0 0.0
2017-Nov-24 07:30N 37°57' E 023°33'0 0.1
2017-Nov-24 07:01N 37°57' E 023°33'0 0.0
2017-Nov-24 06:31N 37°57' E 023°33'0 0.0
2017-Nov-24 06:01N 37°57' E 023°33'0 0.3
2017-Nov-24 05:31N 37°57' E 023°33'1 1.3
2017-Nov-24 05:01N 37°57' E 023°34'0 0.0
2017-Nov-23 08:27N 37°57' E 023°34'0 0.4
2017-Nov-23 08:00N 37°58' E 023°34'0 0.0
2017-Nov-23 00:00N 37°58' E 023°34'1 2.6
2017-Nov-22 23:31N 37°57' E 023°35'1 1.6
2017-Nov-22 23:00N 37°57' E 023°34'1 1.0
2017-Nov-22 22:30N 37°58' E 023°34'0 0.0
2017-Nov-22 22:00N 37°58' E 023°34'0 0.0
2017-Nov-22 21:30N 37°58' E 023°34'0 0.0
2017-Nov-22 21:00N 37°58' E 023°34'0 0.0
2017-Nov-22 20:30N 37°58' E 023°34'0 0.0
2017-Nov-22 20:00N 37°58' E 023°34'0 0.0
2017-Nov-22 19:30N 37°58' E 023°34'  
2017-Nov-19 06:15N 37°58' E 023°34'0 0.5
2017-Nov-19 06:00N 37°58' E 023°34'2 3.3
2017-Nov-19 05:31N 37°57' E 023°36'0 0.0
2017-Nov-19 05:00N 37°57' E 023°36'0 0.0
2017-Nov-19 04:30N 37°57' E 023°36'0 0.0
2017-Nov-19 04:00N 37°57' E 023°36'0 0.0
2017-Nov-19 03:30N 37°57' E 023°36'0 0.0
2017-Nov-19 03:00N 37°57' E 023°36'0 0.6
2017-Nov-19 02:31N 37°57' E 023°36'0 0.7
2017-Nov-19 02:00N 37°57' E 023°35'0 0.5
2017-Nov-19 01:30N 37°57' E 023°35'0 0.0
2017-Nov-19 01:00N 37°57' E 023°35'0 0.1
2017-Nov-19 00:30N 37°57' E 023°35'0 0.1
2017-Nov-19 00:01N 37°57' E 023°35'2 4.6
2017-Nov-18 23:31N 37°58' E 023°33'4 8.5
2017-Nov-18 23:00N 38°02' E 023°31'0 0.7
2017-Nov-18 22:30N 38°02' E 023°31'3 6.8
2017-Nov-18 22:00N 37°59' E 023°33'3 6.0
2017-Nov-18 21:30N 37°57' E 023°36'0 0.0
2017-Nov-18 21:01N 37°57' E 023°36'0 0.1
2017-Nov-18 20:30N 37°57' E 023°36'0 0.1
2017-Nov-18 20:00N 37°57' E 023°36'0 0.0
2017-Nov-18 19:31N 37°57' E 023°36'0 0.0
2017-Nov-18 19:00N 37°57' E 023°36'0 0.0
2017-Nov-18 18:30N 37°57' E 023°36'0 0.0
2017-Nov-18 18:00N 37°57' E 023°36'0 0.0
2017-Nov-18 17:30N 37°57' E 023°36'0 0.0
2017-Nov-18 17:00N 37°57' E 023°36'0 0.0
2017-Nov-18 16:30N 37°57' E 023°36'0 0.0
2017-Nov-18 16:00N 37°57' E 023°36'0 0.0
2017-Nov-18 15:30N 37°57' E 023°36'0 0.0
2017-Nov-18 15:00N 37°57' E 023°36'0 0.0
2017-Nov-18 14:30N 37°57' E 023°36'0 0.0
2017-Nov-18 14:00N 37°57' E 023°36'0 0.0
2017-Nov-18 13:30N 37°57' E 023°36'0 0.0
2017-Nov-18 13:00N 37°57' E 023°36'0 0.0
2017-Nov-18 12:30N 37°57' E 023°36'0 0.0
2017-Nov-18 12:01N 37°57' E 023°36'0 0.0
2017-Nov-18 11:31N 37°57' E 023°36'0 0.0
2017-Nov-18 11:00N 37°57' E 023°36'0 0.0
2017-Nov-18 10:30N 37°57' E 023°36'1 1.2
2017-Nov-18 10:00N 37°57' E 023°35'1 2.3
2017-Nov-18 09:30N 37°58' E 023°34'0 0.7
2017-Nov-18 09:00N 37°58' E 023°33'0 0.0
2017-Nov-18 08:30N 37°58' E 023°33'0 0.0
2017-Nov-18 08:00N 37°58' E 023°33'0 0.0
2017-Nov-18 07:30N 37°58' E 023°33'0 0.0
2017-Nov-18 07:00N 37°58' E 023°33'0 0.0
2017-Nov-18 06:30N 37°58' E 023°33'0 0.0
2017-Nov-18 06:00N 37°58' E 023°33'0 0.0
2017-Nov-18 05:30N 37°58' E 023°33'0 0.0
2017-Nov-18 05:00N 37°58' E 023°33'0 0.0
2017-Nov-18 04:30N 37°58' E 023°33'0 0.0
2017-Nov-18 04:01N 37°58' E 023°33'0 0.0
2017-Nov-18 03:30N 37°58' E 023°33'0 0.0
2017-Nov-18 03:00N 37°58' E 023°33'2 3.1
2017-Nov-18 02:30N 37°57' E 023°35'1 1.4
2017-Nov-18 02:01N 37°57' E 023°36'1 2.2
2017-Nov-18 01:30N 37°56' E 023°35'2 4.1
2017-Nov-18 01:00N 37°58' E 023°33'0 0.0
2017-Nov-18 00:30N 37°58' E 023°33'0 0.0
2017-Nov-18 00:00N 37°58' E 023°33'0 0.0
2017-Nov-17 23:31N 37°58' E 023°33'0 0.0
2017-Nov-17 23:00N 37°58' E 023°33'0 0.0
2017-Nov-17 22:30N 37°58' E 023°33'0 0.0
2017-Nov-17 22:00N 37°58' E 023°33'0 0.0
2017-Nov-17 21:30N 37°58' E 023°33'0 0.0
2017-Nov-17 21:00N 37°58' E 023°33'0 0.0
2017-Nov-17 20:30N 37°58' E 023°33'0 0.0
2017-Nov-17 20:00N 37°58' E 023°33'0 0.0
2017-Nov-17 19:30N 37°58' E 023°33'0 0.3
2017-Nov-17 19:00N 37°58' E 023°34'0 0.3
2017-Nov-17 18:30N 37°58' E 023°33'0 0.1
2017-Nov-17 18:00N 37°58' E 023°33'0 0.1
2017-Nov-17 17:30N 37°58' E 023°33'0 0.0
2017-Nov-17 17:00N 37°58' E 023°33'0 0.0
2017-Nov-17 16:30N 37°58' E 023°33'0 0.0
2017-Nov-17 16:00N 37°58' E 023°33'0 0.0
2017-Nov-17 15:30N 37°58' E 023°33'0 0.2
2017-Nov-17 15:00N 37°58' E 023°34'2 4.6
2017-Nov-17 14:30N 37°56' E 023°36'1 2.3
2017-Nov-17 14:00N 37°56' E 023°35'2 3.9
2017-Nov-17 13:30N 37°58' E 023°33'1 2.3
2017-Nov-17 13:00N 37°59' E 023°33'4 7.4
2017-Nov-17 12:30N 38°02' E 023°36'0 0.2
2017-Nov-17 11:08N 38°01' E 023°36'0 0.0
2017-Nov-17 11:00N 38°01' E 023°36'0 0.0
2017-Nov-17 10:30N 38°01' E 023°36'0 0.0
2017-Nov-17 10:00N 38°01' E 023°36'0 0.0
2017-Nov-17 09:30N 38°01' E 023°36'0 0.3
2017-Nov-17 09:00N 38°02' E 023°36'0 0.9
2017-Nov-17 08:30N 38°01' E 023°35'2 3.8
2017-Nov-17 08:01N 38°01' E 023°33'0 0.2
2017-Nov-17 07:30N 38°01' E 023°33'2 4.4
2017-Nov-17 07:00N 38°02' E 023°31'0 0.0
2017-Nov-17 06:30N 38°02' E 023°31'0 0.0
2017-Nov-17 06:00N 38°02' E 023°31'0 0.6
2017-Nov-17 05:30N 38°02' E 023°31'0 0.6
2017-Nov-17 05:00N 38°02' E 023°31'0 0.0
2017-Nov-17 04:30N 38°02' E 023°31'0 0.0
2017-Nov-17 04:00N 38°02' E 023°31'2 3.8
2017-Nov-17 03:30N 38°01' E 023°32'3 6.5
2017-Nov-17 03:00N 37°58' E 023°34'0 0.0
2017-Nov-17 02:30N 37°58' E 023°34'0 0.0
2017-Nov-17 02:00N 37°58' E 023°34'0 0.0
2017-Nov-17 01:30N 37°58' E 023°34'0 0.0
2017-Nov-17 01:00N 37°58' E 023°34'0 0.0
2017-Nov-17 00:30N 37°58' E 023°34'0 0.0
2017-Nov-17 00:00N 37°58' E 023°34'0 0.0
2017-Nov-16 23:30N 37°58' E 023°34'0 0.0
2017-Nov-16 23:00N 37°58' E 023°34'0 0.0
2017-Nov-16 22:30N 37°58' E 023°34'0 0.0
2017-Nov-16 22:00N 37°58' E 023°34'0 0.0
2017-Nov-16 21:30N 37°58' E 023°34'0 0.1
2017-Nov-16 21:00N 37°58' E 023°34'0 0.2
2017-Nov-16 20:30N 37°58' E 023°34'0 0.0
2017-Nov-16 20:00N 37°58' E 023°34'0 0.0
2017-Nov-16 19:30N 37°58' E 023°34'0 0.0
2017-Nov-16 19:00N 37°58' E 023°34'0 0.0
2017-Nov-16 18:30N 37°58' E 023°34'0 0.0
2017-Nov-16 18:00N 37°58' E 023°34'0 0.0
2017-Nov-16 17:30N 37°58' E 023°34'0 0.1
2017-Nov-16 17:00N 37°58' E 023°34'0 0.1
2017-Nov-16 16:30N 37°58' E 023°34'0 0.0
2017-Nov-16 16:00N 37°58' E 023°34'0 0.0
2017-Nov-16 15:30N 37°58' E 023°34'0 0.5
2017-Nov-16 15:00N 37°57' E 023°34'3 6.9
2017-Nov-16 14:31N 37°56' E 023°38'2 3.4
2017-Nov-16 14:00N 37°57' E 023°36'2 4.6
2017-Nov-16 13:30N 37°58' E 023°33'0 0.0
2017-Nov-16 13:00N 37°58' E 023°33'0 0.0
2017-Nov-15 17:04N 37°58' E 023°33'0 0.1
2017-Nov-15 17:00N 37°58' E 023°33'3 6.1
2017-Nov-15 16:30N 38°01' E 023°32'2 3.3
2017-Nov-15 16:00N 38°02' E 023°31'1 0.5
2017-Nov-15 14:53N 38°02' E 023°31'0 0.3
2017-Nov-15 14:30N 38°02' E 023°31'1 2.9
2017-Nov-15 14:01N 38°02' E 023°32'2 3.1
2017-Nov-15 13:30N 38°02' E 023°30'0 0.1
2017-Nov-15 13:00N 38°02' E 023°30'0 0.6
2017-Nov-15 12:30N 38°02' E 023°31'0 0.7
2017-Nov-15 12:00N 38°02' E 023°31'0 0.0
2017-Nov-15 11:30N 38°02' E 023°31'1 1.6
2017-Nov-15 11:00N 38°01' E 023°31'510.1
2017-Nov-15 10:30N 37°57' E 023°34'1 2.5
2017-Nov-15 10:00N 37°57' E 023°36'0 0.3
2017-Nov-15 09:31N 37°57' E 023°36'0 0.4
2017-Nov-15 09:00N 37°57' E 023°36'2 3.8
2017-Nov-15 08:30N 37°58' E 023°33'0 0.0
2017-Nov-15 08:00N 37°58' E 023°33'0 0.3
2017-Nov-15 07:30N 37°58' E 023°33'0 0.0
2017-Nov-15 07:00N 37°58' E 023°33'0 0.0
2017-Nov-15 06:30N 37°58' E 023°33'0 0.0
2017-Nov-15 06:00N 37°58' E 023°33'0 0.0
2017-Nov-15 05:30N 37°58' E 023°33'0 0.0
2017-Nov-15 05:00N 37°58' E 023°33'0 0.0
2017-Nov-15 04:30N 37°58' E 023°33'0 0.0
2017-Nov-15 04:00N 37°58' E 023°33'  
Track history (hours):
 
Tides and Currents Weather Stations Pressure Air Temp Water Temp Dewpoint Dewpoint Depression Visibility Wind Speed Wind Dir Waves Ship Positions

Christos Xxxiii

Last reported at 2017-Nov-25 00:00 UTC. Time now 2017-Nov-25 00:17 UTC.
Position N 37°57' E 023°36'.

Length 33 m; draft 5 m.

Type: Tug. MMSI: 241395000.

Date/timePositionNaut miles runAvg speedWind from/ knotsBaromVisibWave heightAir tempDewpointWater temp
2017-Nov-25 00:00N 37°57' E 023°36'0 0.0
2017-Nov-24 23:30N 37°57' E 023°36'0 0.4
2017-Nov-24 23:00N 37°57' E 023°36'1 2.2
2017-Nov-24 22:30N 37°56' E 023°36'1 1.9
2017-Nov-24 22:01N 37°57' E 023°36'0 0.8
2017-Nov-24 21:30N 37°57' E 023°36'1 2.0
2017-Nov-24 21:00N 37°56' E 023°36'0 0.4
2017-Nov-24 20:31N 37°56' E 023°36'1 2.3
2017-Nov-24 20:00N 37°57' E 023°36'0 0.0
2017-Nov-24 19:30N 37°57' E 023°36'0 0.0
2017-Nov-24 19:00N 37°57' E 023°36'0 0.0
2017-Nov-24 18:30N 37°57' E 023°36'0 0.0
2017-Nov-24 18:00N 37°57' E 023°36'0 0.0
2017-Nov-24 17:30N 37°57' E 023°36'1 1.5
2017-Nov-24 17:00N 37°57' E 023°37'0 0.0
2017-Nov-24 16:30N 37°57' E 023°37'0 0.0
2017-Nov-24 16:00N 37°57' E 023°37'0 0.0
2017-Nov-24 15:30N 37°57' E 023°37'0 0.0
2017-Nov-24 15:00N 37°57' E 023°37'0 0.0
2017-Nov-24 14:30N 37°57' E 023°37'0 0.0
2017-Nov-24 14:00N 37°57' E 023°37'1 2.4
2017-Nov-24 13:30N 37°57' E 023°35'1 2.8
2017-Nov-24 13:01N 37°56' E 023°34'0 0.3
2017-Nov-24 12:31N 37°56' E 023°34'1 1.8
2017-Nov-24 12:00N 37°57' E 023°35'1 2.1
2017-Nov-24 11:30N 37°57' E 023°34'0 0.9
2017-Nov-24 11:00N 37°57' E 023°33'0 0.2
2017-Nov-24 10:30N 37°57' E 023°33'0 0.0
2017-Nov-24 10:00N 37°57' E 023°33'0 0.1
2017-Nov-24 09:30N 37°57' E 023°33'0 0.0
2017-Nov-24 09:00N 37°57' E 023°33'0 0.0
2017-Nov-24 08:30N 37°57' E 023°33'0 0.0
2017-Nov-24 08:00N 37°57' E 023°33'0 0.0
2017-Nov-24 07:30N 37°57' E 023°33'0 0.1
2017-Nov-24 07:01N 37°57' E 023°33'0 0.0
2017-Nov-24 06:31N 37°57' E 023°33'0 0.0
2017-Nov-24 06:01N 37°57' E 023°33'0 0.3
2017-Nov-24 05:31N 37°57' E 023°33'1 1.3
2017-Nov-24 05:01N 37°57' E 023°34'0 0.0
2017-Nov-23 08:27N 37°57' E 023°34'0 0.4
2017-Nov-23 08:00N 37°58' E 023°34'0 0.0
2017-Nov-23 00:00N 37°58' E 023°34'1 2.6
2017-Nov-22 23:31N 37°57' E 023°35'1 1.6
2017-Nov-22 23:00N 37°57' E 023°34'1 1.0
2017-Nov-22 22:30N 37°58' E 023°34'0 0.0
2017-Nov-22 22:00N 37°58' E 023°34'0 0.0
2017-Nov-22 21:30N 37°58' E 023°34'0 0.0
2017-Nov-22 21:00N 37°58' E 023°34'0 0.0
2017-Nov-22 20:30N 37°58' E 023°34'0 0.0
2017-Nov-22 20:00N 37°58' E 023°34'0 0.0
2017-Nov-22 19:30N 37°58' E 023°34'  
2017-Nov-19 06:15N 37°58' E 023°34'0 0.5
2017-Nov-19 06:00N 37°58' E 023°34'2 3.3
2017-Nov-19 05:31N 37°57' E 023°36'0 0.0
2017-Nov-19 05:00N 37°57' E 023°36'0 0.0
2017-Nov-19 04:30N 37°57' E 023°36'0 0.0
2017-Nov-19 04:00N 37°57' E 023°36'0 0.0
2017-Nov-19 03:30N 37°57' E 023°36'0 0.0
2017-Nov-19 03:00N 37°57' E 023°36'0 0.6
2017-Nov-19 02:31N 37°57' E 023°36'0 0.7
2017-Nov-19 02:00N 37°57' E 023°35'0 0.5
2017-Nov-19 01:30N 37°57' E 023°35'0 0.0
2017-Nov-19 01:00N 37°57' E 023°35'0 0.1
2017-Nov-19 00:30N 37°57' E 023°35'0 0.1
2017-Nov-19 00:01N 37°57' E 023°35'2 4.6
2017-Nov-18 23:31N 37°58' E 023°33'4 8.5
2017-Nov-18 23:00N 38°02' E 023°31'0 0.7
2017-Nov-18 22:30N 38°02' E 023°31'3 6.8
2017-Nov-18 22:00N 37°59' E 023°33'3 6.0
2017-Nov-18 21:30N 37°57' E 023°36'0 0.0
2017-Nov-18 21:01N 37°57' E 023°36'0 0.1
2017-Nov-18 20:30N 37°57' E 023°36'0 0.1
2017-Nov-18 20:00N 37°57' E 023°36'0 0.0
2017-Nov-18 19:31N 37°57' E 023°36'0 0.0
2017-Nov-18 19:00N 37°57' E 023°36'0 0.0
2017-Nov-18 18:30N 37°57' E 023°36'0 0.0
2017-Nov-18 18:00N 37°57' E 023°36'0 0.0
2017-Nov-18 17:30N 37°57' E 023°36'0 0.0
2017-Nov-18 17:00N 37°57' E 023°36'0 0.0
2017-Nov-18 16:30N 37°57' E 023°36'0 0.0
2017-Nov-18 16:00N 37°57' E 023°36'0 0.0
2017-Nov-18 15:30N 37°57' E 023°36'0 0.0
2017-Nov-18 15:00N 37°57' E 023°36'0 0.0
2017-Nov-18 14:30N 37°57' E 023°36'0 0.0
2017-Nov-18 14:00N 37°57' E 023°36'0 0.0
2017-Nov-18 13:30N 37°57' E 023°36'0 0.0
2017-Nov-18 13:00N 37°57' E 023°36'0 0.0
2017-Nov-18 12:30N 37°57' E 023°36'0 0.0
2017-Nov-18 12:01N 37°57' E 023°36'0 0.0
2017-Nov-18 11:31N 37°57' E 023°36'0 0.0
2017-Nov-18 11:00N 37°57' E 023°36'0 0.0
2017-Nov-18 10:30N 37°57' E 023°36'1 1.2
2017-Nov-18 10:00N 37°57' E 023°35'1 2.3
2017-Nov-18 09:30N 37°58' E 023°34'0 0.7
2017-Nov-18 09:00N 37°58' E 023°33'0 0.0
2017-Nov-18 08:30N 37°58' E 023°33'0 0.0
2017-Nov-18 08:00N 37°58' E 023°33'0 0.0
2017-Nov-18 07:30N 37°58' E 023°33'0 0.0
2017-Nov-18 07:00N 37°58' E 023°33'0 0.0
2017-Nov-18 06:30N 37°58' E 023°33'0 0.0
2017-Nov-18 06:00N 37°58' E 023°33'0 0.0
2017-Nov-18 05:30N 37°58' E 023°33'0 0.0
2017-Nov-18 05:00N 37°58' E 023°33'0 0.0
2017-Nov-18 04:30N 37°58' E 023°33'0 0.0
2017-Nov-18 04:01N 37°58' E 023°33'0 0.0
2017-Nov-18 03:30N 37°58' E 023°33'0 0.0
2017-Nov-18 03:00N 37°58' E 023°33'2 3.1
2017-Nov-18 02:30N 37°57' E 023°35'1 1.4
2017-Nov-18 02:01N 37°57' E 023°36'1 2.2
2017-Nov-18 01:30N 37°56' E 023°35'2 4.1
2017-Nov-18 01:00N 37°58' E 023°33'0 0.0
2017-Nov-18 00:30N 37°58' E 023°33'0 0.0
2017-Nov-18 00:00N 37°58' E 023°33'0 0.0
2017-Nov-17 23:31N 37°58' E 023°33'0 0.0
2017-Nov-17 23:00N 37°58' E 023°33'0 0.0
2017-Nov-17 22:30N 37°58' E 023°33'0 0.0
2017-Nov-17 22:00N 37°58' E 023°33'0 0.0
2017-Nov-17 21:30N 37°58' E 023°33'0 0.0
2017-Nov-17 21:00N 37°58' E 023°33'0 0.0
2017-Nov-17 20:30N 37°58' E 023°33'0 0.0
2017-Nov-17 20:00N 37°58' E 023°33'0 0.0
2017-Nov-17 19:30N 37°58' E 023°33'0 0.3
2017-Nov-17 19:00N 37°58' E 023°34'0 0.3
2017-Nov-17 18:30N 37°58' E 023°33'0 0.1
2017-Nov-17 18:00N 37°58' E 023°33'0 0.1
2017-Nov-17 17:30N 37°58' E 023°33'0 0.0
2017-Nov-17 17:00N 37°58' E 023°33'0 0.0
2017-Nov-17 16:30N 37°58' E 023°33'0 0.0
2017-Nov-17 16:00N 37°58' E 023°33'0 0.0
2017-Nov-17 15:30N 37°58' E 023°33'0 0.2
2017-Nov-17 15:00N 37°58' E 023°34'2 4.6
2017-Nov-17 14:30N 37°56' E 023°36'1 2.3
2017-Nov-17 14:00N 37°56' E 023°35'2 3.9
2017-Nov-17 13:30N 37°58' E 023°33'1 2.3
2017-Nov-17 13:00N 37°59' E 023°33'4 7.4
2017-Nov-17 12:30N 38°02' E 023°36'0 0.2
2017-Nov-17 11:08N 38°01' E 023°36'0 0.0
2017-Nov-17 11:00N 38°01' E 023°36'0 0.0
2017-Nov-17 10:30N 38°01' E 023°36'0 0.0
2017-Nov-17 10:00N 38°01' E 023°36'0 0.0
2017-Nov-17 09:30N 38°01' E 023°36'0 0.3
2017-Nov-17 09:00N 38°02' E 023°36'0 0.9
2017-Nov-17 08:30N 38°01' E 023°35'2 3.8
2017-Nov-17 08:01N 38°01' E 023°33'0 0.2
2017-Nov-17 07:30N 38°01' E 023°33'2 4.4
2017-Nov-17 07:00N 38°02' E 023°31'0 0.0
2017-Nov-17 06:30N 38°02' E 023°31'0 0.0
2017-Nov-17 06:00N 38°02' E 023°31'0 0.6
2017-Nov-17 05:30N 38°02' E 023°31'0 0.6
2017-Nov-17 05:00N 38°02' E 023°31'0 0.0
2017-Nov-17 04:30N 38°02' E 023°31'0 0.0
2017-Nov-17 04:00N 38°02' E 023°31'2 3.8
2017-Nov-17 03:30N 38°01' E 023°32'3 6.5
2017-Nov-17 03:00N 37°58' E 023°34'0 0.0
2017-Nov-17 02:30N 37°58' E 023°34'0 0.0
2017-Nov-17 02:00N 37°58' E 023°34'0 0.0
2017-Nov-17 01:30N 37°58' E 023°34'0 0.0
2017-Nov-17 01:00N 37°58' E 023°34'0 0.0
2017-Nov-17 00:30N 37°58' E 023°34'0 0.0
2017-Nov-17 00:00N 37°58' E 023°34'0 0.0
2017-Nov-16 23:30N 37°58' E 023°34'0 0.0
2017-Nov-16 23:00N 37°58' E 023°34'0 0.0
2017-Nov-16 22:30N 37°58' E 023°34'0 0.0
2017-Nov-16 22:00N 37°58' E 023°34'0 0.0
2017-Nov-16 21:30N 37°58' E 023°34'0 0.1
2017-Nov-16 21:00N 37°58' E 023°34'0 0.2
2017-Nov-16 20:30N 37°58' E 023°34'0 0.0
2017-Nov-16 20:00N 37°58' E 023°34'0 0.0
2017-Nov-16 19:30N 37°58' E 023°34'0 0.0
2017-Nov-16 19:00N 37°58' E 023°34'0 0.0
2017-Nov-16 18:30N 37°58' E 023°34'0 0.0
2017-Nov-16 18:00N 37°58' E 023°34'0 0.0
2017-Nov-16 17:30N 37°58' E 023°34'0 0.1
2017-Nov-16 17:00N 37°58' E 023°34'0 0.1
2017-Nov-16 16:30N 37°58' E 023°34'0 0.0
2017-Nov-16 16:00N 37°58' E 023°34'0 0.0
2017-Nov-16 15:30N 37°58' E 023°34'0 0.5
2017-Nov-16 15:00N 37°57' E 023°34'3 6.9
2017-Nov-16 14:31N 37°56' E 023°38'2 3.4
2017-Nov-16 14:00N 37°57' E 023°36'2 4.6
2017-Nov-16 13:30N 37°58' E 023°33'0 0.0
2017-Nov-16 13:00N 37°58' E 023°33'0 0.0
2017-Nov-15 17:04N 37°58' E 023°33'0 0.1
2017-Nov-15 17:00N 37°58' E 023°33'3 6.1
2017-Nov-15 16:30N 38°01' E 023°32'2 3.3
2017-Nov-15 16:00N 38°02' E 023°31'1 0.5
2017-Nov-15 14:53N 38°02' E 023°31'0 0.3
2017-Nov-15 14:30N 38°02' E 023°31'1 2.9
2017-Nov-15 14:01N 38°02' E 023°32'2 3.1
2017-Nov-15 13:30N 38°02' E 023°30'0 0.1
2017-Nov-15 13:00N 38°02' E 023°30'0 0.6
2017-Nov-15 12:30N 38°02' E 023°31'0 0.7
2017-Nov-15 12:00N 38°02' E 023°31'0 0.0
2017-Nov-15 11:30N 38°02' E 023°31'1 1.6
2017-Nov-15 11:00N 38°01' E 023°31'510.1
2017-Nov-15 10:30N 37°57' E 023°34'1 2.5
2017-Nov-15 10:00N 37°57' E 023°36'0 0.3
2017-Nov-15 09:31N 37°57' E 023°36'0 0.4
2017-Nov-15 09:00N 37°57' E 023°36'2 3.8
2017-Nov-15 08:30N 37°58' E 023°33'0 0.0
2017-Nov-15 08:00N 37°58' E 023°33'0 0.3
2017-Nov-15 07:30N 37°58' E 023°33'0 0.0
2017-Nov-15 07:00N 37°58' E 023°33'0 0.0
2017-Nov-15 06:30N 37°58' E 023°33'0 0.0
2017-Nov-15 06:00N 37°58' E 023°33'0 0.0
2017-Nov-15 05:30N 37°58' E 023°33'0 0.0
2017-Nov-15 05:00N 37°58' E 023°33'0 0.0
2017-Nov-15 04:30N 37°58' E 023°33'0 0.0
2017-Nov-15 04:00N 37°58' E 023°33'  

Dump ship's entire track history